sensor_id;sensor_type;location;lat;lon;timestamp;pressure;altitude;pressure_sealevel;temperature;humidity
56928;BME280;60850;52.502;13.426;2024-03-17T00:00:43;101732.69;;;4.35;100.00
56928;BME280;60850;52.502;13.426;2024-03-17T00:03:31;101730.94;;;4.34;100.00
56928;BME280;60850;52.502;13.426;2024-03-17T00:05:58;101744.13;;;4.32;100.00
56928;BME280;60850;52.502;13.426;2024-03-17T00:08:25;101742.28;;;4.28;100.00
56928;BME280;60850;52.502;13.426;2024-03-17T00:10:52;101738.75;;;4.28;100.00
56928;BME280;60850;52.502;13.426;2024-03-17T00:13:18;101751.97;;;4.29;100.00
56928;BME280;60850;52.502;13.426;2024-03-17T00:15:45;101744.94;;;4.30;100.00
56928;BME280;60850;52.502;13.426;2024-03-17T00:18:11;101742.28;;;4.28;100.00
56928;BME280;60850;52.502;13.426;2024-03-17T00:20:39;101743.13;;;4.26;100.00
56928;BME280;60850;52.502;13.426;2024-03-17T00:23:05;101748.41;;;4.26;100.00
56928;BME280;60850;52.502;13.426;2024-03-17T00:25:35;101742.19;;;4.22;100.00
56928;BME280;60850;52.502;13.426;2024-03-17T00:28:01;101736.88;;;4.19;100.00
56928;BME280;60850;52.502;13.426;2024-03-17T00:30:28;101734.19;;;4.16;100.00
56928;BME280;60850;52.502;13.426;2024-03-17T00:32:54;101748.22;;;4.15;100.00
56928;BME280;60850;52.502;13.426;2024-03-17T00:35:23;101749.97;;;4.14;100.00
56928;BME280;60850;52.502;13.426;2024-03-17T00:37:52;101754.47;;;4.20;100.00
56928;BME280;60850;52.502;13.426;2024-03-17T00:40:19;101752.59;;;4.13;100.00
56928;BME280;60850;52.502;13.426;2024-03-17T00:42:46;101764.88;;;4.09;100.00
56928;BME280;60850;52.502;13.426;2024-03-17T00:45:13;101756.06;;;4.09;100.00
56928;BME280;60850;52.502;13.426;2024-03-17T00:47:40;101757.78;;;4.07;100.00
56928;BME280;60850;52.502;13.426;2024-03-17T00:50:07;101749.00;;;4.08;100.00
56928;BME280;60850;52.502;13.426;2024-03-17T00:52:34;101761.25;;;4.03;100.00
56928;BME280;60850;52.502;13.426;2024-03-17T00:55:02;101757.69;;;4.01;100.00
56928;BME280;60850;52.502;13.426;2024-03-17T00:57:29;101750.59;;;3.97;100.00
56928;BME280;60850;52.502;13.426;2024-03-17T00:59:55;101760.25;;;3.96;100.00
56928;BME280;60850;52.502;13.426;2024-03-17T01:02:22;101752.28;;;3.93;100.00
56928;BME280;60850;52.502;13.426;2024-03-17T01:04:48;101757.50;;;3.90;100.00
56928;BME280;60850;52.502;13.426;2024-03-17T01:07:15;101754.00;;;3.91;100.00
56928;BME280;60850;52.502;13.426;2024-03-17T01:09:40;101761.03;;;3.91;100.00
56928;BME280;60850;52.502;13.426;2024-03-17T01:12:09;101764.56;;;3.91;100.00
56928;BME280;60850;52.502;13.426;2024-03-17T01:14:35;101762.72;;;3.87;100.00
56928;BME280;60850;52.502;13.426;2024-03-17T01:17:02;101764.47;;;3.86;100.00
56928;BME280;60850;52.502;13.426;2024-03-17T01:19:30;101766.31;;;3.91;100.00
56928;BME280;60850;52.502;13.426;2024-03-17T01:22:00;101767.22;;;3.94;100.00
56928;BME280;60850;52.502;13.426;2024-03-17T01:24:26;101762.78;;;3.89;100.00
56928;BME280;60850;52.502;13.426;2024-03-17T01:26:57;101763.56;;;3.84;100.00
56928;BME280;60850;52.502;13.426;2024-03-17T01:29:26;101760.00;;;3.81;100.00
56928;BME280;60850;52.502;13.426;2024-03-17T01:31:54;101751.22;;;3.82;100.00
56928;BME280;60850;52.502;13.426;2024-03-17T01:34:26;101759.03;;;3.77;100.00
56928;BME280;60850;52.502;13.426;2024-03-17T01:36:53;101760.84;;;3.80;100.00
56928;BME280;60850;52.502;13.426;2024-03-17T01:39:20;101766.97;;;3.79;100.00
56928;BME280;60850;52.502;13.426;2024-03-17T01:41:50;101762.47;;;3.73;100.00
56928;BME280;60850;52.502;13.426;2024-03-17T01:44:22;101758.91;;;3.70;100.00
56928;BME280;60850;52.502;13.426;2024-03-17T01:46:50;101762.53;;;3.75;100.00
56928;BME280;60850;52.502;13.426;2024-03-17T01:49:17;101751.91;;;3.72;100.00
56928;BME280;60850;52.502;13.426;2024-03-17T01:51:44;101750.16;;;3.72;100.00
56928;BME280;60850;52.502;13.426;2024-03-17T01:54:12;101755.50;;;3.75;100.00
56928;BME280;60850;52.502;13.426;2024-03-17T01:56:39;101756.28;;;3.70;100.00
56928;BME280;60850;52.502;13.426;2024-03-17T01:59:09;101758.81;;;3.65;100.00
56928;BME280;60850;52.502;13.426;2024-03-17T02:01:35;101756.06;;;3.59;100.00
56928;BME280;60850;52.502;13.426;2024-03-17T02:04:05;101749.84;;;3.54;100.00
56928;BME280;60850;52.502;13.426;2024-03-17T02:06:31;101754.25;;;3.55;100.00
56928;BME280;60850;52.502;13.426;2024-03-17T02:08:58;101763.97;;;3.59;100.00
56928;BME280;60850;52.502;13.426;2024-03-17T02:11:26;101763.09;;;3.58;100.00
56928;BME280;60850;52.502;13.426;2024-03-17T02:13:54;101763.13;;;3.60;100.00
56928;BME280;60850;52.502;13.426;2024-03-17T02:16:21;101770.13;;;3.58;100.00
56928;BME280;60850;52.502;13.426;2024-03-17T02:18:48;101771.81;;;3.54;100.00
56928;BME280;60850;52.502;13.426;2024-03-17T02:21:16;101775.34;;;3.55;100.00
56928;BME280;60850;52.502;13.426;2024-03-17T02:23:44;101767.16;;;3.41;100.00
56928;BME280;60850;52.502;13.426;2024-03-17T02:26:10;101773.31;;;3.40;100.00
56928;BME280;60850;52.502;13.426;2024-03-17T02:28:40;101761.06;;;3.44;100.00
56928;BME280;60850;52.502;13.426;2024-03-17T02:31:08;101759.25;;;3.40;100.00
56928;BME280;60850;52.502;13.426;2024-03-17T02:33:35;101767.16;;;3.40;100.00
56928;BME280;60850;52.502;13.426;2024-03-17T02:36:02;101767.09;;;3.38;100.00
56928;BME280;60850;52.502;13.426;2024-03-17T02:38:33;101773.09;;;3.31;100.00
56928;BME280;60850;52.502;13.426;2024-03-17T02:41:19;101775.69;;;3.28;100.00
56928;BME280;60850;52.502;13.426;2024-03-17T02:43:46;101766.91;;;3.27;100.00
56928;BME280;60850;52.502;13.426;2024-03-17T02:46:15;101766.03;;;3.28;100.00
56928;BME280;60850;52.502;13.426;2024-03-17T02:48:43;101756.25;;;3.23;100.00
56928;BME280;60850;52.502;13.426;2024-03-17T02:51:13;101770.38;;;3.25;100.00
56928;BME280;60850;52.502;13.426;2024-03-17T02:53:41;101770.31;;;3.23;100.00
56928;BME280;60850;52.502;13.426;2024-03-17T02:56:08;101759.69;;;3.17;100.00
56928;BME280;60850;52.502;13.426;2024-03-17T02:58:37;101761.34;;;3.12;100.00
56928;BME280;60850;52.502;13.426;2024-03-17T03:01:05;101758.81;;;3.18;100.00
56928;BME280;60850;52.502;13.426;2024-03-17T03:03:33;101762.13;;;3.10;100.00
56928;BME280;60850;52.502;13.426;2024-03-17T03:06:00;101763.06;;;3.10;100.00
56928;BME280;60850;52.502;13.426;2024-03-17T03:08:29;101759.44;;;3.07;100.00
56928;BME280;60850;52.502;13.426;2024-03-17T03:10:56;101759.44;;;3.05;100.00
56928;BME280;60850;52.502;13.426;2024-03-17T03:13:23;101761.19;;;3.06;100.00
56928;BME280;60850;52.502;13.426;2024-03-17T03:15:52;101762.03;;;3.03;100.00
56928;BME280;60850;52.502;13.426;2024-03-17T03:18:18;101760.16;;;2.98;100.00
56928;BME280;60850;52.502;13.426;2024-03-17T03:20:50;101768.13;;;3.01;100.00
56928;BME280;60850;52.502;13.426;2024-03-17T03:23:17;101767.19;;;2.97;100.00
56928;BME280;60850;52.502;13.426;2024-03-17T03:25:44;101767.97;;;2.95;100.00
56928;BME280;60850;52.502;13.426;2024-03-17T03:28:12;101769.69;;;2.93;100.00
56928;BME280;60850;52.502;13.426;2024-03-17T03:30:39;101768.72;;;2.88;100.00
56928;BME280;60850;52.502;13.426;2024-03-17T03:33:07;101770.47;;;2.87;100.00
56928;BME280;60850;52.502;13.426;2024-03-17T03:35:35;101773.06;;;2.86;100.00
56928;BME280;60850;52.502;13.426;2024-03-17T03:38:02;101773.84;;;2.82;100.00
56928;BME280;60850;52.502;13.426;2024-03-17T03:40:29;101768.63;;;2.83;100.00
56928;BME280;60850;52.502;13.426;2024-03-17T03:42:56;101772.03;;;2.79;100.00
56928;BME280;60850;52.502;13.426;2024-03-17T03:45:23;101769.38;;;2.78;100.00
56928;BME280;60850;52.502;13.426;2024-03-17T03:47:51;101772.06;;;2.81;100.00
56928;BME280;60850;52.502;13.426;2024-03-17T03:50:21;101765.91;;;2.80;100.00
56928;BME280;60850;52.502;13.426;2024-03-17T03:52:48;101771.00;;;2.72;100.00
56928;BME280;60850;52.502;13.426;2024-03-17T03:55:16;101776.31;;;2.74;100.00
56928;BME280;60850;52.502;13.426;2024-03-17T03:57:44;101780.81;;;2.80;100.00
56928;BME280;60850;52.502;13.426;2024-03-17T04:00:13;101779.91;;;2.78;100.00
56928;BME280;60850;52.502;13.426;2024-03-17T04:02:40;101782.53;;;2.76;100.00
56928;BME280;60850;52.502;13.426;2024-03-17T04:05:08;101777.16;;;2.73;100.00
56928;BME280;60850;52.502;13.426;2024-03-17T04:07:36;101779.78;;;2.71;100.00
56928;BME280;60850;52.502;13.426;2024-03-17T04:10:04;101780.69;;;2.73;100.00
56928;BME280;60850;52.502;13.426;2024-03-17T04:12:32;101789.25;;;2.63;100.00
56928;BME280;60850;52.502;13.426;2024-03-17T04:14:59;101784.94;;;2.67;100.00
56928;BME280;60850;52.502;13.426;2024-03-17T04:17:26;101782.22;;;2.64;100.00
56928;BME280;60850;52.502;13.426;2024-03-17T04:19:54;101782.06;;;2.56;100.00
56928;BME280;60850;52.502;13.426;2024-03-17T04:22:21;101782.09;;;2.58;100.00
56928;BME280;60850;52.502;13.426;2024-03-17T04:24:51;101783.97;;;2.62;100.00
56928;BME280;60850;52.502;13.426;2024-03-17T04:27:19;101790.97;;;2.61;100.00
56928;BME280;60850;52.502;13.426;2024-03-17T04:29:47;101790.09;;;2.62;100.00
56928;BME280;60850;52.502;13.426;2024-03-17T04:32:14;101788.38;;;2.64;100.00
56928;BME280;60850;52.502;13.426;2024-03-17T04:34:42;101787.63;;;2.68;100.00
56928;BME280;60850;52.502;13.426;2024-03-17T04:37:10;101788.28;;;2.60;100.00
56928;BME280;60850;52.502;13.426;2024-03-17T04:39:38;101791.69;;;2.54;100.00
56928;BME280;60850;52.502;13.426;2024-03-17T04:42:06;101796.97;;;2.56;100.00
56928;BME280;60850;52.502;13.426;2024-03-17T04:44:33;101790.75;;;2.54;100.00
56928;BME280;60850;52.502;13.426;2024-03-17T04:47:00;101795.09;;;2.50;100.00
56928;BME280;60850;52.502;13.426;2024-03-17T04:49:28;101800.34;;;2.50;100.00
56928;BME280;60850;52.502;13.426;2024-03-17T04:51:54;101804.78;;;2.53;100.00
56928;BME280;60850;52.502;13.426;2024-03-17T04:54:21;101807.38;;;2.51;100.00
56928;BME280;60850;52.502;13.426;2024-03-17T04:56:48;101810.88;;;2.50;100.00
56928;BME280;60850;52.502;13.426;2024-03-17T04:59:17;101813.53;;;2.52;100.00
56928;BME280;60850;52.502;13.426;2024-03-17T05:01:43;101810.88;;;2.50;100.00
56928;BME280;60850;52.502;13.426;2024-03-17T05:04:10;101812.50;;;2.45;100.00
56928;BME280;60850;52.502;13.426;2024-03-17T05:06:37;101811.63;;;2.46;100.00
56928;BME280;60850;52.502;13.426;2024-03-17T05:09:04;101803.81;;;2.47;100.00
56928;BME280;60850;52.502;13.426;2024-03-17T05:11:31;101814.22;;;2.43;100.00
56928;BME280;60850;52.502;13.426;2024-03-17T05:13:59;101816.00;;;2.44;100.00
56928;BME280;60850;52.502;13.426;2024-03-17T05:16:27;101814.28;;;2.46;100.00
56928;BME280;60850;52.502;13.426;2024-03-17T05:18:55;101814.22;;;2.43;100.00
56928;BME280;60850;52.502;13.426;2024-03-17T05:21:22;101805.56;;;2.47;100.00
56928;BME280;60850;52.502;13.426;2024-03-17T05:23:49;101807.38;;;2.51;100.00
56928;BME280;60850;52.502;13.426;2024-03-17T05:26:16;101809.13;;;2.51;100.00
56928;BME280;60850;52.502;13.426;2024-03-17T05:28:44;101813.78;;;2.61;100.00
56928;BME280;60850;52.502;13.426;2024-03-17T05:31:10;101813.69;;;2.58;100.00
56928;BME280;60850;52.502;13.426;2024-03-17T05:33:42;101818.19;;;2.62;100.00
56928;BME280;60850;52.502;13.426;2024-03-17T05:36:08;101821.16;;;2.77;100.00
56928;BME280;60850;52.502;13.426;2024-03-17T05:38:36;101835.53;;;2.93;100.00
56928;BME280;60850;52.502;13.426;2024-03-17T05:41:04;101822.69;;;3.08;100.00
56928;BME280;60850;52.502;13.426;2024-03-17T05:43:33;101826.59;;;3.25;100.00
56928;BME280;60850;52.502;13.426;2024-03-17T05:46:02;101824.72;;;3.64;100.00
56928;BME280;60850;52.502;13.426;2024-03-17T05:48:29;101822.72;;;3.97;100.00
56928;BME280;60850;52.502;13.426;2024-03-17T05:50:57;101824.22;;;4.34;100.00
56928;BME280;60850;52.502;13.426;2024-03-17T05:53:24;101821.88;;;4.53;100.00
56928;BME280;60850;52.502;13.426;2024-03-17T05:55:51;101824.16;;;4.87;100.00
56928;BME280;60850;52.502;13.426;2024-03-17T05:58:18;101828.00;;;5.12;100.00
56928;BME280;60850;52.502;13.426;2024-03-17T06:00:45;101842.38;;;5.33;100.00
56928;BME280;60850;52.502;13.426;2024-03-17T06:03:12;101839.47;;;5.87;100.00
56928;BME280;60850;52.502;13.426;2024-03-17T06:05:40;101844.16;;;6.11;100.00
56928;BME280;60850;52.502;13.426;2024-03-17T06:08:09;101852.16;;;6.19;100.00
56928;BME280;60850;52.502;13.426;2024-03-17T06:10:37;101851.88;;;5.91;100.00
56928;BME280;60850;52.502;13.426;2024-03-17T06:13:04;101851.69;;;5.76;100.00
56928;BME280;60850;52.502;13.426;2024-03-17T06:15:31;101856.00;;;5.65;100.00
56928;BME280;60850;52.502;13.426;2024-03-17T06:17:58;101858.84;;;5.83;100.00
56928;BME280;60850;52.502;13.426;2024-03-17T06:20:27;101854.88;;;5.44;100.00
56928;BME280;60850;52.502;13.426;2024-03-17T06:22:54;101862.84;;;5.49;100.00
56928;BME280;60850;52.502;13.426;2024-03-17T06:25:22;101864.31;;;5.98;100.00
56928;BME280;60850;52.502;13.426;2024-03-17T06:27:50;101863.75;;;6.31;100.00
56928;BME280;60850;52.502;13.426;2024-03-17T06:30:17;101863.31;;;6.87;100.00
56928;BME280;60850;52.502;13.426;2024-03-17T06:32:45;101859.06;;;7.15;100.00
56928;BME280;60850;52.502;13.426;2024-03-17T06:35:13;101864.47;;;7.35;100.00
56928;BME280;60850;52.502;13.426;2024-03-17T06:37:41;101862.81;;;7.57;100.00
56928;BME280;60850;52.502;13.426;2024-03-17T06:40:09;101869.13;;;7.97;100.00
56928;BME280;60850;52.502;13.426;2024-03-17T06:42:41;101858.22;;;7.23;100.00
56928;BME280;60850;52.502;13.426;2024-03-17T06:45:08;101866.75;;;6.70;100.00
56928;BME280;60850;52.502;13.426;2024-03-17T06:47:35;101879.16;;;6.80;100.00
56928;BME280;60850;52.502;13.426;2024-03-17T06:50:02;101876.56;;;6.89;100.00
56928;BME280;60850;52.502;13.426;2024-03-17T06:52:30;101877.88;;;7.61;100.00
56928;BME280;60850;52.502;13.426;2024-03-17T06:54:57;101882.44;;;8.16;100.00
56928;BME280;60850;52.502;13.426;2024-03-17T06:57:24;101886.88;;;8.20;100.00
56928;BME280;60850;52.502;13.426;2024-03-17T06:59:52;101882.41;;;9.30;100.00
56928;BME280;60850;52.502;13.426;2024-03-17T07:02:19;101888.72;;;8.62;100.00
56928;BME280;60850;52.502;13.426;2024-03-17T07:04:47;101892.22;;;9.12;100.00
56928;BME280;60850;52.502;13.426;2024-03-17T07:07:14;101896.41;;;9.77;97.00
56928;BME280;60850;52.502;13.426;2024-03-17T07:09:41;101898.41;;;9.01;99.95
56928;BME280;60850;52.502;13.426;2024-03-17T07:12:09;101899.31;;;8.59;100.00
56928;BME280;60850;52.502;13.426;2024-03-17T07:14:36;101903.63;;;9.53;98.21
56928;BME280;60850;52.502;13.426;2024-03-17T07:17:05;101909.00;;;9.29;96.99
56928;BME280;60850;52.502;13.426;2024-03-17T07:19:32;101906.91;;;10.06;95.36
56928;BME280;60850;52.502;13.426;2024-03-17T07:22:01;101912.56;;;9.31;95.96
56928;BME280;60850;52.502;13.426;2024-03-17T07:24:29;101901.91;;;9.26;97.81
56928;BME280;60850;52.502;13.426;2024-03-17T07:26:56;101911.75;;;8.91;98.04
56928;BME280;60850;52.502;13.426;2024-03-17T07:29:22;101920.56;;;9.26;98.19
56928;BME280;60850;52.502;13.426;2024-03-17T07:31:49;101920.59;;;9.11;97.52
56928;BME280;60850;52.502;13.426;2024-03-17T07:34:18;101918.81;;;8.93;98.80
56928;BME280;60850;52.502;13.426;2024-03-17T07:36:45;101909.00;;;9.38;96.65
56928;BME280;60850;52.502;13.426;2024-03-17T07:39:12;101916.16;;;9.07;98.21
56928;BME280;60850;52.502;13.426;2024-03-17T07:41:39;101917.00;;;9.30;97.46
56928;BME280;60850;52.502;13.426;2024-03-17T07:44:06;101925.00;;;9.07;97.13
56928;BME280;60850;52.502;13.426;2024-03-17T07:46:33;101916.16;;;8.92;98.26
56928;BME280;60850;52.502;13.426;2024-03-17T07:49:00;101929.47;;;8.79;98.88
56928;BME280;60850;52.502;13.426;2024-03-17T07:51:28;101944.50;;;8.67;100.00
56928;BME280;60850;52.502;13.426;2024-03-17T07:53:55;101939.09;;;8.12;100.00
56928;BME280;60850;52.502;13.426;2024-03-17T07:56:22;101946.28;;;8.40;100.00
56928;BME280;60850;52.502;13.426;2024-03-17T07:58:49;101932.03;;;9.48;96.25
56928;BME280;60850;52.502;13.426;2024-03-17T08:01:17;101941.59;;;9.94;93.18
56928;BME280;60850;52.502;13.426;2024-03-17T08:03:46;101933.53;;;10.15;90.26
56928;BME280;60850;52.502;13.426;2024-03-17T08:06:15;101929.09;;;10.12;88.83
56928;BME280;60850;52.502;13.426;2024-03-17T08:08:45;101943.28;;;10.16;87.91
56928;BME280;60850;52.502;13.426;2024-03-17T08:11:12;101927.06;;;10.57;85.68
56928;BME280;60850;52.502;13.426;2024-03-17T08:13:39;101935.25;;;10.30;84.32
56928;BME280;60850;52.502;13.426;2024-03-17T08:16:07;101930.41;;;10.82;82.29
56928;BME280;60850;52.502;13.426;2024-03-17T08:18:35;101924.41;;;10.57;83.19
56928;BME280;60850;52.502;13.426;2024-03-17T08:21:03;101931.47;;;12.83;74.90
56928;BME280;60850;52.502;13.426;2024-03-17T08:23:31;101917.56;;;13.61;67.12
56928;BME280;60850;52.502;13.426;2024-03-17T08:26:01;101920.03;;;14.12;64.55
56928;BME280;60850;52.502;13.426;2024-03-17T08:28:28;101916.47;;;14.52;59.35
56928;BME280;60850;52.502;13.426;2024-03-17T08:30:56;101919.59;;;13.92;59.47
56928;BME280;60850;52.502;13.426;2024-03-17T08:33:24;101915.28;;;13.85;60.26
56928;BME280;60850;52.502;13.426;2024-03-17T08:35:54;101920.78;;;13.34;61.37
56928;BME280;60850;52.502;13.426;2024-03-17T08:38:22;101917.75;;;15.07;57.70
56928;BME280;60850;52.502;13.426;2024-03-17T08:40:50;101911.41;;;15.44;53.44
56928;BME280;60850;52.502;13.426;2024-03-17T08:43:19;101917.84;;;15.69;53.95
56928;BME280;60850;52.502;13.426;2024-03-17T08:45:54;101913.41;;;15.68;51.31
56928;BME280;60850;52.502;13.426;2024-03-17T08:48:21;101919.00;;;13.31;57.84
56928;BME280;60850;52.502;13.426;2024-03-17T08:50:50;101926.59;;;12.52;62.85
56928;BME280;60850;52.502;13.426;2024-03-17T08:53:17;101921.94;;;11.31;68.29
56928;BME280;60850;52.502;13.426;2024-03-17T08:55:44;101932.84;;;11.08;72.08
56928;BME280;60850;52.502;13.426;2024-03-17T08:58:11;101929.97;;;10.16;74.71
56928;BME280;60850;52.502;13.426;2024-03-17T09:00:39;101939.72;;;10.18;78.28
56928;BME280;60850;52.502;13.426;2024-03-17T09:03:07;101935.72;;;10.87;74.76
56928;BME280;60850;52.502;13.426;2024-03-17T09:05:35;101938.53;;;10.64;74.64
56928;BME280;60850;52.502;13.426;2024-03-17T09:08:02;101932.34;;;10.62;77.73
56928;BME280;60850;52.502;13.426;2024-03-17T09:10:29;101937.13;;;10.05;77.13
56928;BME280;60850;52.502;13.426;2024-03-17T09:12:56;101935.75;;;10.78;73.21
56928;BME280;60850;52.502;13.426;2024-03-17T09:15:23;101940.50;;;10.40;73.62
56928;BME280;60850;52.502;13.426;2024-03-17T09:17:51;101938.09;;;9.90;74.57
56928;BME280;60850;52.502;13.426;2024-03-17T09:20:18;101938.94;;;9.92;76.35
56928;BME280;60850;52.502;13.426;2024-03-17T09:22:45;101930.19;;;11.05;73.14
56928;BME280;60850;52.502;13.426;2024-03-17T09:25:12;101924.94;;;10.96;72.24
56928;BME280;60850;52.502;13.426;2024-03-17T09:27:40;101933.19;;;10.68;73.42
56928;BME280;60850;52.502;13.426;2024-03-17T09:30:08;101934.38;;;10.29;75.78
56928;BME280;60850;52.502;13.426;2024-03-17T09:32:36;101930.88;;;10.15;75.85
56928;BME280;60850;52.502;13.426;2024-03-17T09:35:06;101943.38;;;9.93;78.36
56928;BME280;60850;52.502;13.426;2024-03-17T09:37:33;101940.91;;;9.46;78.70
56928;BME280;60850;52.502;13.426;2024-03-17T09:40:00;101941.84;;;9.23;80.59
56928;BME280;60850;52.502;13.426;2024-03-17T09:42:28;101936.50;;;9.35;81.34
56928;BME280;60850;52.502;13.426;2024-03-17T09:44:55;101939.97;;;9.56;80.52
56928;BME280;60850;52.502;13.426;2024-03-17T09:47:23;101940.91;;;9.49;80.36
56928;BME280;60850;52.502;13.426;2024-03-17T09:49:52;101954.22;;;9.52;79.53
56928;BME280;60850;52.502;13.426;2024-03-17T09:52:22;101943.66;;;9.03;78.40
56928;BME280;60850;52.502;13.426;2024-03-17T09:54:55;101941.00;;;9.03;78.20
56928;BME280;60850;52.502;13.426;2024-03-17T09:57:25;101939.19;;;9.13;77.28
56928;BME280;60850;52.502;13.426;2024-03-17T09:59:52;101935.59;;;9.36;77.00
56928;BME280;60850;52.502;13.426;2024-03-17T10:02:21;101945.13;;;10.08;74.64
56928;BME280;60850;52.502;13.426;2024-03-17T10:04:48;101943.47;;;9.72;75.91
56928;BME280;60850;52.502;13.426;2024-03-17T10:07:15;101932.94;;;9.33;74.91
56928;BME280;60850;52.502;13.426;2024-03-17T10:09:43;101929.47;;;9.10;75.92
56928;BME280;60850;52.502;13.426;2024-03-17T10:12:29;101936.56;;;9.05;78.42
56928;BME280;60850;52.502;13.426;2024-03-17T10:14:59;101932.00;;;9.59;76.53
56928;BME280;60850;52.502;13.426;2024-03-17T10:17:30;101924.91;;;9.53;73.18
56928;BME280;60850;52.502;13.426;2024-03-17T10:20:14;101928.28;;;9.94;72.27
56928;BME280;60850;52.502;13.426;2024-03-17T10:23:02;101925.47;;;10.21;72.70
56928;BME280;60850;52.502;13.426;2024-03-17T10:25:33;101936.03;;;10.45;70.83
56928;BME280;60850;52.502;13.426;2024-03-17T10:28:00;101929.97;;;10.16;70.97
56928;BME280;60850;52.502;13.426;2024-03-17T10:30:28;101926.34;;;10.31;70.49
56928;BME280;60850;52.502;13.426;2024-03-17T10:32:57;101922.72;;;10.41;68.57
56928;BME280;60850;52.502;13.426;2024-03-17T10:35:30;101930.88;;;10.10;70.27
56928;BME280;60850;52.502;13.426;2024-03-17T10:37:58;101927.59;;;9.47;73.83
56928;BME280;60850;52.502;13.426;2024-03-17T10:40:27;101922.22;;;9.58;74.30
56928;BME280;60850;52.502;13.426;2024-03-17T10:42:57;101929.25;;;9.77;74.12
56928;BME280;60850;52.502;13.426;2024-03-17T10:45:26;101930.25;;;9.43;72.91
56928;BME280;60850;52.502;13.426;2024-03-17T10:47:59;101929.31;;;9.68;73.78
56928;BME280;60850;52.502;13.426;2024-03-17T10:50:31;101929.97;;;10.11;70.07
56928;BME280;60850;52.502;13.426;2024-03-17T10:53:04;101936.03;;;10.42;68.49
56928;BME280;60850;52.502;13.426;2024-03-17T10:55:42;101930.88;;;10.12;68.82
56928;BME280;60850;52.502;13.426;2024-03-17T10:58:23;101929.06;;;10.14;69.37
56928;BME280;60850;52.502;13.426;2024-03-17T11:00:51;101929.28;;;9.73;69.57
56928;BME280;60850;52.502;13.426;2024-03-17T11:03:18;101925.53;;;10.12;68.33
56928;BME280;60850;52.502;13.426;2024-03-17T11:05:48;101932.72;;;10.01;69.50
56928;BME280;60850;52.502;13.426;2024-03-17T11:08:17;101934.69;;;9.53;67.58
56928;BME280;60850;52.502;13.426;2024-03-17T11:10:52;101930.22;;;9.59;69.48
56928;BME280;60850;52.502;13.426;2024-03-17T11:13:25;101929.28;;;9.71;68.77
56928;BME280;60850;52.502;13.426;2024-03-17T11:15:53;101929.09;;;10.11;67.83
56928;BME280;60850;52.502;13.426;2024-03-17T11:18:37;101925.47;;;10.30;67.80
56928;BME280;60850;52.502;13.426;2024-03-17T11:21:19;101932.75;;;9.95;69.04
56928;BME280;60850;52.502;13.426;2024-03-17T11:23:57;101932.63;;;10.14;69.61
56928;BME280;60850;52.502;13.426;2024-03-17T11:26:33;101926.47;;;10.00;70.55
56928;BME280;60850;52.502;13.426;2024-03-17T11:29:02;101928.44;;;9.55;68.91
56928;BME280;60850;52.502;13.426;2024-03-17T11:31:40;101932.06;;;9.22;69.02
56928;BME280;60850;52.502;13.426;2024-03-17T11:34:25;101918.69;;;9.50;69.25
56928;BME280;60850;52.502;13.426;2024-03-17T11:36:54;101919.53;;;9.67;71.23
56928;BME280;60850;52.502;13.426;2024-03-17T11:39:20;101916.03;;;9.50;68.59
56928;BME280;60850;52.502;13.426;2024-03-17T11:41:51;101921.38;;;9.54;69.00
56928;BME280;60850;52.502;13.426;2024-03-17T11:44:25;101923.22;;;9.14;69.61
56928;BME280;60850;52.502;13.426;2024-03-17T11:46:54;101919.66;;;9.29;68.48
56928;BME280;60850;52.502;13.426;2024-03-17T11:49:21;101921.38;;;9.44;67.50
56928;BME280;60850;52.502;13.426;2024-03-17T11:51:49;101922.28;;;9.40;66.56
56928;BME280;60850;52.502;13.426;2024-03-17T11:54:16;101924.88;;;9.67;66.45
56928;BME280;60850;52.502;13.426;2024-03-17T11:56:45;101915.94;;;9.80;66.59
56928;BME280;60850;52.502;13.426;2024-03-17T11:59:11;101921.31;;;9.73;65.78
56928;BME280;60850;52.502;13.426;2024-03-17T12:01:40;101920.41;;;9.75;65.04
56928;BME280;60850;52.502;13.426;2024-03-17T12:04:07;101914.09;;;9.96;64.31
56928;BME280;60850;52.502;13.426;2024-03-17T12:06:34;101925.72;;;9.80;62.24
56928;BME280;60850;52.502;13.426;2024-03-17T12:09:11;101916.97;;;9.46;62.83
56928;BME280;60850;52.502;13.426;2024-03-17T12:11:43;101915.19;;;9.46;63.52
56928;BME280;60850;52.502;13.426;2024-03-17T12:14:16;101915.94;;;9.76;62.40
56928;BME280;60850;52.502;13.426;2024-03-17T12:16:50;101904.50;;;9.55;63.67
56928;BME280;60850;52.502;13.426;2024-03-17T12:19:17;101896.47;;;9.64;62.15
56928;BME280;60850;52.502;13.426;2024-03-17T12:21:46;101913.19;;;9.93;61.46
56928;BME280;60850;52.502;13.426;2024-03-17T12:24:16;101903.25;;;10.30;60.48
56928;BME280;60850;52.502;13.426;2024-03-17T12:26:44;101889.09;;;10.23;58.28
56928;BME280;60850;52.502;13.426;2024-03-17T12:29:23;101893.41;;;10.39;58.85
56928;BME280;60850;52.502;13.426;2024-03-17T12:31:52;101893.25;;;10.61;58.96
56928;BME280;60850;52.502;13.426;2024-03-17T12:34:19;101895.63;;;10.94;57.93
56928;BME280;60850;52.502;13.426;2024-03-17T12:36:46;101891.13;;;10.99;56.86
56928;BME280;60850;52.502;13.426;2024-03-17T12:39:21;101883.16;;;10.95;57.23
56928;BME280;60850;52.502;13.426;2024-03-17T12:42:01;101876.28;;;10.69;56.85
56928;BME280;60850;52.502;13.426;2024-03-17T12:44:27;101870.22;;;10.49;57.62
56928;BME280;60850;52.502;13.426;2024-03-17T12:46:57;101865.53;;;10.79;57.75
56928;BME280;60850;52.502;13.426;2024-03-17T12:49:26;101872.97;;;11.32;56.64